Aérodrome :
LOGIN :

S'inscrire | Disclaimer

   EN    FR    IT 

 










Légende :    VFR   VFR Marginal   IFR   IFR Intensif   IFR Très Intensif
Visi : 
Plafond : 
>= 8 km
>= 3000ft
5 à 8 km
1000 à 3000 ft
1500m à 5 km
500 à 1000 ft
800 à 1500m
200 à 500 ft
< 800m
< 200 ft
Symboles :   Orages  Brouillard  Fortes neiges  Fortes précipitations  Vent > 20 kt
SIGMETs :   Divers  Orages  Givrage  Turbulence  Onde Orograph.  Cendres Volcan.







- Altitude de l'aérodrome : 141 ft
- Code IATA : SKS


EKSP - Srydstrup Vojens

DERNIER METAR :
  • 170920Z 23022G34KT 9999 BKN035 15/10 Q1015 TEMPO 23020G32KT

METARs EXPIRÉS :
  • 170918Z 23021G34KT 9999 BKN035 15/11 Q1015 TEMPO 23020G32KT
  • 170850Z 24017KT 200V270 9999 BKN035 14/10 Q1015 TEMPO 23018G28KT
  • 170820Z 24017KT 9999 BKN028 14/10 Q1015 TEMPO 23018G28KT
  • 170750Z 24015KT 9999 BKN034 13/11 Q1016 TEMPO 23018G28KT
  • 170720Z 24011KT 9999 BKN022 13/11 Q1016 BECMG 23015G25KT
  • 170650Z 24011KT 9999 SCT022 BKN250 13/11 Q1015 BECMG 23015G25KT

TAF TAF EKSP
Valide du 17 à 09h jusqu'au 18 à 06h UTC


170814Z 1709/1806 24018KT 9999 SCT020
TEMPO 1709/1723 23020G32KT
BECMG 1800/1802 25010KT
Pas de NOTAMs connus pour ce terrain.



MET'MAP, la Météo Aéronautique d'un coup d'oeil ! - Copyright ORBIFLY Décembre 2007 - Disclaimer

ORBIFLY MET'MAP TEAM :

Programmation & Développement : Alexandra Zaïnal
Conception & Développement : Baudouin d'Aumeries
Co-Programmation & Développement : Marc-Olivier Méhu
Soutien technique & logistique : Manuel Goepfert

Contact : metmap@orbifly.com




SOURCES & CREDITS :

   NOAA